Hachinohemaru — JE3089 — position and weather

sailwx.info

Track history (hours):
 
Tides and Currents Weather Stations Pressure Air Temp Water Temp Dewpoint Dewpoint Depression Visibility Wind Speed Wind Dir Waves Ship Positions

Hachinohemaru

Last reported at 2016-Jul-26 00:26 UTC. Time now 2016-Jul-26 10:17 UTC.
Position N 36°47' E 141°03'.

Length 168 m; draft 6.5 m.

Type: Cargo ship. MMSI: 431700018.

Date/timePositionNaut miles runAvg speedWind from/ knotsBaromVisibWave heightAir tempDewpointWater temp
2016-Jul-26 00:26N 36°47' E 141°03'1413.8
2016-Jul-25 23:27N 36°34' E 140°57'1413.8
2016-Jul-25 22:28N 36°21' E 140°52'1313.9
2016-Jul-25 21:33N 36°09' E 140°47'1313.3
2016-Jul-25 20:33N 35°56' E 140°42'1 0.1
2016-Jul-25 13:20N 35°56' E 140°41'32 2.5
2016-Jul-25 00:32N 35°24' E 140°44'1313.1
2016-Jul-24 23:31N 35°13' E 140°34'1612.8
2016-Jul-24 22:15N 35°01' E 140°20'912.8
2016-Jul-24 21:33N 34°56' E 140°12'1412.7
2016-Jul-24 20:29N 34°48' E 139°58'1313.2
2016-Jul-24 19:32N 34°42' E 139°44'6913.5
2016-Jul-24 14:26N 34°22' E 138°24'  
2016-Jul-18 16:13N 34°23' E 138°23'6513.9
2016-Jul-18 11:33N 34°41' E 139°39'1514.6
2016-Jul-18 10:32N 34°47' E 139°56'1414.5
2016-Jul-18 09:33N 34°55' E 140°10'1514.3
2016-Jul-18 08:32N 35°03' E 140°25'1313.1
2016-Jul-18 07:32N 35°12' E 140°36'1313.0
2016-Jul-18 06:33N 35°23' E 140°43'1412.9
2016-Jul-18 05:28N 35°35' E 140°53'1313.3
2016-Jul-18 04:30N 35°48' E 140°56'1314.0
2016-Jul-18 03:33N 35°58' E 140°46'5 0.8
2016-Jul-17 21:03N 35°56' E 140°41'0 0.0
2016-Jul-17 20:33N 35°56' E 140°41'0 0.0
2016-Jul-17 18:33N 35°56' E 140°41'0 0.0
2016-Jul-17 16:33N 35°56' E 140°41'0 0.0
2016-Jul-17 15:09N 35°56' E 140°41'0 0.0
2016-Jul-17 14:33N 35°56' E 140°41'0 0.0
2016-Jul-17 13:27N 35°56' E 140°41'4 4.9
2016-Jul-17 12:33N 35°60' E 140°43'0 0.3
2016-Jul-17 11:33N 35°60' E 140°44'0 0.0
2016-Jul-17 08:24N 35°60' E 140°44'0 0.0
2016-Jul-17 07:15N 35°60' E 140°44'0 0.0
2016-Jul-17 06:27N 35°60' E 140°44'0 0.0
2016-Jul-17 04:30N 35°60' E 140°44'0 0.0
2016-Jul-17 03:16N 35°60' E 140°44'  
Track history (hours):
 
Tides and Currents Weather Stations Pressure Air Temp Water Temp Dewpoint Dewpoint Depression Visibility Wind Speed Wind Dir Waves Ship Positions

Hachinohemaru

Last reported at 2016-Jul-26 00:26 UTC. Time now 2016-Jul-26 10:17 UTC.
Position N 36°47' E 141°03'.

Length 168 m; draft 6.5 m.

Type: Cargo ship. MMSI: 431700018.

Date/timePositionNaut miles runAvg speedWind from/ knotsBaromVisibWave heightAir tempDewpointWater temp
2016-Jul-26 00:26N 36°47' E 141°03'1413.8
2016-Jul-25 23:27N 36°34' E 140°57'1413.8
2016-Jul-25 22:28N 36°21' E 140°52'1313.9
2016-Jul-25 21:33N 36°09' E 140°47'1313.3
2016-Jul-25 20:33N 35°56' E 140°42'1 0.1
2016-Jul-25 13:20N 35°56' E 140°41'32 2.5
2016-Jul-25 00:32N 35°24' E 140°44'1313.1
2016-Jul-24 23:31N 35°13' E 140°34'1612.8
2016-Jul-24 22:15N 35°01' E 140°20'912.8
2016-Jul-24 21:33N 34°56' E 140°12'1412.7
2016-Jul-24 20:29N 34°48' E 139°58'1313.2
2016-Jul-24 19:32N 34°42' E 139°44'6913.5
2016-Jul-24 14:26N 34°22' E 138°24'  
2016-Jul-18 16:13N 34°23' E 138°23'6513.9
2016-Jul-18 11:33N 34°41' E 139°39'1514.6
2016-Jul-18 10:32N 34°47' E 139°56'1414.5
2016-Jul-18 09:33N 34°55' E 140°10'1514.3
2016-Jul-18 08:32N 35°03' E 140°25'1313.1
2016-Jul-18 07:32N 35°12' E 140°36'1313.0
2016-Jul-18 06:33N 35°23' E 140°43'1412.9
2016-Jul-18 05:28N 35°35' E 140°53'1313.3
2016-Jul-18 04:30N 35°48' E 140°56'1314.0
2016-Jul-18 03:33N 35°58' E 140°46'5 0.8
2016-Jul-17 21:03N 35°56' E 140°41'0 0.0
2016-Jul-17 20:33N 35°56' E 140°41'0 0.0
2016-Jul-17 18:33N 35°56' E 140°41'0 0.0
2016-Jul-17 16:33N 35°56' E 140°41'0 0.0
2016-Jul-17 15:09N 35°56' E 140°41'0 0.0
2016-Jul-17 14:33N 35°56' E 140°41'0 0.0
2016-Jul-17 13:27N 35°56' E 140°41'4 4.9
2016-Jul-17 12:33N 35°60' E 140°43'0 0.3
2016-Jul-17 11:33N 35°60' E 140°44'0 0.0
2016-Jul-17 08:24N 35°60' E 140°44'0 0.0
2016-Jul-17 07:15N 35°60' E 140°44'0 0.0
2016-Jul-17 06:27N 35°60' E 140°44'0 0.0
2016-Jul-17 04:30N 35°60' E 140°44'0 0.0
2016-Jul-17 03:16N 35°60' E 140°44'  

Dump ship's entire track history